Time;durP1;ratioP1;P1;durP2;ratioP2;P2;SDS_P1;SDS_P2;PMS_P1;PMS_P2;Temp;Humidity;BMP_temperature;BMP_pressure;BME280_temperature;BME280_humidity;BME280_pressure;Samples;Min_cycle;Max_cycle;Signal;HPM_P1;HPM_P2
2021/05/31 00:00:56;;;;;;;2.33;1.10;;;;;;;34.40;38.66;160236.28;1634572;88;21711;-78
2021/05/31 00:03:28;;;;;;;1.72;0.90;;;;;;;34.37;38.67;160229.63;1689133;84;21326;-79
2021/05/31 00:06:01;;;;;;;2.67;1.25;;;;;;;34.40;38.58;160237.59;1673217;85;21202;-79
2021/05/31 00:08:33;;;;;;;1.15;0.93;;;;;;;34.44;38.52;160246.95;1674665;85;21230;-79
2021/05/31 00:11:06;;;;;;;2.95;1.10;;;;;;;34.29;38.61;160208.20;1661832;86;21388;-78
2021/05/31 00:13:39;;;;;;;3.70;1.00;;;;;;;34.18;38.74;160178.81;1661443;86;21384;-78
2021/05/31 00:16:11;;;;;;;1.12;0.85;;;;;;;34.17;38.68;160176.12;1693086;84;21362;-79
2021/05/31 00:18:45;;;;;;;4.95;1.05;;;;;;;34.27;38.63;160201.55;1705418;83;21271;-79
2021/05/31 00:21:19;;;;;;;1.37;1.22;;;;;;;34.37;38.44;160229.63;1703807;84;21191;-78
2021/05/31 00:23:52;;;;;;;1.02;0.93;;;;;;;34.38;38.40;160232.25;1700733;84;21221;-78
2021/05/31 00:26:25;;;;;;;1.50;0.95;;;;;;;34.37;38.37;160229.63;1689656;85;21182;-78
2021/05/31 00:28:58;;;;;;;2.35;1.00;;;;;;;34.23;38.50;160190.83;1689868;85;21380;-78
2021/05/31 00:31:31;;;;;;;1.12;1.00;;;;;;;34.25;38.52;160197.55;1668613;85;21180;-78
2021/05/31 00:34:05;;;;;;;2.15;1.00;;;;;;;34.28;38.39;160204.22;1690052;85;21418;-79
2021/05/31 00:36:37;;;;;;;2.65;1.02;;;;;;;34.27;38.41;160202.84;1689896;85;21424;-80
2021/05/31 00:39:10;;;;;;;2.40;1.22;;;;;;;34.34;38.29;160220.22;1662376;86;21214;-79
2021/05/31 00:41:46;;;;;;;3.12;1.00;;;;;;;34.44;38.14;160248.31;1662392;86;21389;-79
2021/05/31 00:44:17;;;;;;;3.27;1.00;;;;;;;34.31;38.23;160212.25;1665121;85;21419;-79
2021/05/31 00:46:50;;;;;;;1.00;0.88;;;;;;;34.39;38.12;160233.61;1690506;84;21351;-80
2021/05/31 00:49:35;;;;;;;2.77;1.27;;;;;;;34.31;38.15;160213.56;1690177;84;21327;-79
2021/05/31 00:52:01;;;;;;;1.35;1.07;;;;;;;34.32;38.19;160216.23;1686868;85;21343;-78
2021/05/31 00:54:34;;;;;;;1.77;1.00;;;;;;;34.36;38.13;160226.94;1687661;85;21229;-79
2021/05/31 00:57:06;;;;;;;1.17;1.10;;;;;;;34.40;38.03;160236.28;1689991;84;21874;-79
2021/05/31 00:59:39;;;;;;;3.37;1.20;;;;;;;34.17;38.22;160176.12;1689781;84;21212;-79
2021/05/31 01:02:11;;;;;;;1.37;0.90;;;;;;;34.12;38.30;160160.13;1690252;84;21226;-79
2021/05/31 01:04:43;;;;;;;1.62;0.95;;;;;;;34.22;38.19;160188.16;1690093;85;21355;-79
2021/05/31 01:07:41;;;;;;;3.95;1.20;;;;;;;34.24;38.00;160193.50;1690057;85;21713;-79
2021/05/31 01:10:25;;;;;;;7.67;1.25;;;;;;;34.04;38.33;160140.03;1678708;84;21452;-79
2021/05/31 01:13:10;;;;;;;2.08;0.88;;;;;;;33.87;38.53;160094.58;1666730;85;21269;-79
2021/05/31 01:15:52;;;;;;;2.47;1.32;;;;;;;33.48;38.94;159989.00;1688952;85;21844;-79
2021/05/31 01:22:14;;;;;;;10.78;2.95;;;;;;;33.35;39.12;159955.66;1689845;84;21200;-78
2021/05/31 01:24:54;;;;;;;2.30;1.10;;;;;;;33.48;39.19;159990.38;1689897;83;21379;-79
2021/05/31 01:27:46;;;;;;;1.10;1.00;;;;;;;33.35;39.33;159955.66;1688810;84;21838;-79
2021/05/31 01:30:22;;;;;;;1.32;1.00;;;;;;;33.35;39.31;159954.28;1632505;84;21360;-80
2021/05/31 01:32:54;;;;;;;2.20;1.12;;;;;;;36.78;35.52;160875.84;1663563;84;21234;-81
2021/05/31 01:35:30;;;;;;;1.92;1.10;;;;;;;36.98;34.91;160929.47;1690636;84;21169;-79
2021/05/31 01:38:03;;;;;;;2.20;1.20;;;;;;;37.00;34.65;160934.78;1692152;83;21325;-79
2021/05/31 01:40:35;;;;;;;1.75;1.20;;;;;;;34.08;37.83;160149.38;1633974;86;21835;-80
2021/05/31 01:43:10;;;;;;;1.47;0.98;;;;;;;33.95;38.18;160114.63;1660129;86;21278;-80
2021/05/31 01:45:43;;;;;;;1.77;1.27;;;;;;;33.91;38.28;160105.28;1647818;86;21230;-80
2021/05/31 01:48:15;;;;;;;1.37;1.00;;;;;;;33.88;38.34;160097.25;1674422;83;21389;-80
2021/05/31 01:50:48;;;;;;;3.72;1.02;;;;;;;33.91;38.36;160103.97;1636256;86;21376;-80
2021/05/31 01:53:22;;;;;;;4.00;1.10;;;;;;;33.85;38.42;160087.91;1641757;85;21872;-80
2021/05/31 01:55:54;;;;;;;2.98;1.72;;;;;;;33.78;38.43;160070.55;1676450;85;21404;-80
2021/05/31 01:58:27;;;;;;;2.75;1.00;;;;;;;33.81;38.48;160078.56;1684834;85;21439;-78
2021/05/31 02:00:59;;;;;;;2.45;0.90;;;;;;;33.84;38.47;160086.59;1685151;85;21230;-78
2021/05/31 02:03:33;;;;;;;1.90;1.30;;;;;;;33.79;38.53;160071.91;1684979;85;21400;-78
2021/05/31 02:06:06;;;;;;;3.55;1.15;;;;;;;33.77;38.55;160066.56;1684680;85;21238;-78
2021/05/31 02:08:39;;;;;;;1.27;0.90;;;;;;;33.64;38.57;160033.13;1684700;85;21891;-78
2021/05/31 02:11:43;;;;;;;2.30;1.30;;;;;;;33.69;38.59;160045.14;1684719;85;21238;-78
2021/05/31 02:14:20;;;;;;;2.83;1.40;;;;;;;33.93;38.34;160109.27;1655795;85;21185;-78
2021/05/31 02:17:03;;;;;;;1.10;1.00;;;;;;;33.83;38.38;160083.92;1684777;84;21718;-78
2021/05/31 02:19:37;;;;;;;1.80;1.10;;;;;;;33.61;38.53;160023.80;1667519;85;21840;-78
2021/05/31 02:22:10;;;;;;;3.12;1.12;;;;;;;33.81;38.40;160078.56;1683413;85;21840;-78
2021/05/31 02:24:42;;;;;;;2.47;1.27;;;;;;;33.82;38.37;160079.89;1674454;85;21171;-78
2021/05/31 02:27:15;;;;;;;2.22;1.20;;;;;;;33.61;38.56;160025.16;1702973;84;21392;-79
2021/05/31 02:29:48;;;;;;;1.85;0.95;;;;;;;33.51;38.67;159997.03;1692956;84;21760;-79
2021/05/31 02:32:21;;;;;;;1.20;1.10;;;;;;;33.52;38.63;159999.72;1674892;83;21828;-79
2021/05/31 02:34:53;;;;;;;4.30;1.20;;;;;;;34.03;38.21;160137.34;1703045;83;21406;-79
2021/05/31 02:37:39;;;;;;;3.00;1.32;;;;;;;33.84;38.38;160085.23;1696141;83;21243;-79
2021/05/31 02:40:12;;;;;;;2.98;1.20;;;;;;;33.71;38.56;160050.50;1692002;85;21402;-79
2021/05/31 02:42:54;;;;;;;1.77;1.00;;;;;;;33.76;38.46;160063.88;1694828;84;21269;-79
2021/05/31 02:45:28;;;;;;;3.25;1.20;;;;;;;33.83;38.41;160083.92;1695837;83;21338;-79
2021/05/31 02:48:00;;;;;;;1.42;1.20;;;;;;;33.85;38.32;160087.91;1693084;82;21358;-78
2021/05/31 02:50:33;;;;;;;1.47;1.20;;;;;;;33.82;38.37;160079.89;1698642;83;21285;-80
2021/05/31 02:53:05;;;;;;;1.87;1.00;;;;;;;33.90;38.33;160101.30;1687496;85;21364;-79
2021/05/31 02:55:38;;;;;;;1.62;1.27;;;;;;;33.93;38.29;160110.63;1694288;83;21877;-79
2021/05/31 02:58:12;;;;;;;4.28;1.20;;;;;;;33.84;38.41;160085.23;1693090;85;21386;-79
2021/05/31 03:00:44;;;;;;;4.95;1.20;;;;;;;33.93;38.28;160109.27;1700110;83;21384;-79
2021/05/31 03:03:16;;;;;;;4.60;1.40;;;;;;;33.82;38.35;160081.25;1693259;85;21433;-80
2021/05/31 03:05:49;;;;;;;2.70;1.30;;;;;;;33.87;38.38;160093.27;1703307;82;21687;-79
2021/05/31 03:08:21;;;;;;;4.25;1.20;;;;;;;33.86;38.39;160090.59;1706876;83;21369;-78
2021/05/31 03:10:54;;;;;;;4.40;1.30;;;;;;;33.83;38.39;160083.92;1693495;83;21425;-79
2021/05/31 03:13:26;;;;;;;1.98;1.05;;;;;;;33.84;38.43;160085.23;1693437;85;21200;-92
2021/05/31 03:15:58;;;;;;;2.95;1.20;;;;;;;34.08;38.20;160149.38;1695214;83;21369;-92
2021/05/31 03:18:31;;;;;;;11.93;1.22;;;;;;;33.90;38.39;160102.61;1694059;85;21215;-91
2021/05/31 03:21:03;;;;;;;5.62;1.20;;;;;;;33.88;38.42;160095.94;1714464;83;21820;-82
2021/05/31 03:23:35;;;;;;;2.00;1.10;;;;;;;33.73;38.54;160055.84;1699531;83;21202;-81
2021/05/31 03:26:08;;;;;;;1.57;1.10;;;;;;;33.71;38.59;160050.50;1689637;84;21728;-81
2021/05/31 03:28:40;;;;;;;2.75;1.40;;;;;;;33.67;38.62;160039.84;1686799;84;21428;-81
2021/05/31 03:31:13;;;;;;;1.35;1.20;;;;;;;33.69;38.61;160046.52;1680887;84;21178;-81
2021/05/31 03:33:45;;;;;;;1.90;1.17;;;;;;;33.69;38.62;160045.14;1684655;83;21753;-81
2021/05/31 03:36:18;;;;;;;1.82;1.10;;;;;;;33.61;38.72;160023.80;1686198;84;21678;-81
2021/05/31 03:38:51;;;;;;;5.78;1.22;;;;;;;33.63;38.75;160030.45;1684126;84;21388;-81
2021/05/31 03:41:23;;;;;;;0.95;0.93;;;;;;;33.67;38.68;160041.16;1683403;85;21625;-82
2021/05/31 03:43:56;;;;;;;2.92;1.37;;;;;;;33.75;38.60;160062.52;1685190;85;21773;-78
2021/05/31 03:46:29;;;;;;;11.08;1.65;;;;;;;33.70;38.66;160049.19;1686278;83;21253;-82
2021/05/31 03:49:01;;;;;;;2.35;1.20;;;;;;;33.59;38.84;160019.75;1684905;84;21202;-82
2021/05/31 03:51:34;;;;;;;2.75;1.22;;;;;;;33.58;38.81;160017.08;1684716;84;21221;-82
2021/05/31 03:54:07;;;;;;;3.92;1.32;;;;;;;33.62;38.80;160026.47;1684237;85;21752;-83
2021/05/31 03:56:39;;;;;;;1.20;1.10;;;;;;;33.58;38.84;160017.08;1654243;85;21238;-82
2021/05/31 03:59:11;;;;;;;3.92;1.22;;;;;;;33.59;38.85;160018.39;1684589;84;21173;-79
2021/05/31 04:01:44;;;;;;;1.62;1.10;;;;;;;33.71;38.84;160051.88;1684984;83;21364;-78
2021/05/31 04:04:16;;;;;;;2.35;1.27;;;;;;;33.70;38.67;160049.19;1664831;84;21284;-78
2021/05/31 04:12:14;;;;;;;1.60;1.10;;;;;;;33.81;38.58;160077.22;1662871;83;21348;-82
2021/05/31 04:14:47;;;;;;;1.10;1.00;;;;;;;33.79;38.54;160071.91;1665259;84;21182;-82
2021/05/31 04:17:21;;;;;;;1.22;1.10;;;;;;;33.72;38.57;160053.17;1661926;84;22574;-83
2021/05/31 04:19:54;;;;;;;2.35;1.55;;;;;;;33.71;38.59;160050.50;1666807;83;21256;-80
2021/05/31 04:22:26;;;;;;;2.05;1.40;;;;;;;33.63;38.63;160029.14;1683743;85;21376;-82
2021/05/31 04:24:58;;;;;;;1.55;1.17;;;;;;;33.63;38.59;160029.14;1683623;84;21230;-81
2021/05/31 04:27:31;;;;;;;0.93;0.90;;;;;;;33.63;38.62;160029.14;1683746;83;21728;-82
2021/05/31 04:30:05;;;;;;;2.05;1.50;;;;;;;33.63;38.60;160030.45;1684619;84;21817;-81
2021/05/31 04:32:37;;;;;;;1.35;1.22;;;;;;;33.63;38.57;160029.14;1684851;84;21435;-81
2021/05/31 04:35:10;;;;;;;1.67;1.10;;;;;;;33.54;38.63;160006.38;1684779;85;21246;-82
2021/05/31 04:37:42;;;;;;;1.00;0.80;;;;;;;33.58;38.61;160017.08;1685008;83;21894;-82
2021/05/31 04:40:16;;;;;;;2.10;1.10;;;;;;;33.68;38.48;160042.53;1685023;84;21242;-81
2021/05/31 04:42:48;;;;;;;3.42;1.10;;;;;;;33.64;38.55;160031.81;1684819;85;21316;-82
2021/05/31 04:45:21;;;;;;;2.65;1.22;;;;;;;33.64;38.54;160031.81;1684989;84;21376;-81
2021/05/31 04:47:53;;;;;;;2.98;1.77;;;;;;;33.72;38.44;160054.55;1676111;83;21246;-80
2021/05/31 04:50:26;;;;;;;2.70;1.10;;;;;;;33.73;38.45;160057.22;1668056;83;21936;-81
2021/05/31 04:52:58;;;;;;;2.52;1.20;;;;;;;33.80;38.41;160074.53;1681312;85;21371;-81
2021/05/31 04:55:31;;;;;;;1.98;0.93;;;;;;;33.66;38.57;160037.17;1684910;84;21194;-81
2021/05/31 04:58:03;;;;;;;2.12;1.30;;;;;;;33.73;38.50;160057.22;1667736;85;21230;-81
2021/05/31 05:00:36;;;;;;;1.42;0.93;;;;;;;33.76;38.50;160065.19;1684839;85;21790;-81
2021/05/31 05:03:08;;;;;;;2.98;1.10;;;;;;;33.84;38.40;160086.59;1684810;85;21277;-81
2021/05/31 05:05:41;;;;;;;1.85;1.10;;;;;;;33.93;38.30;160109.27;1680275;83;21865;-81
2021/05/31 05:08:14;;;;;;;1.32;1.10;;;;;;;33.88;38.33;160095.94;1681217;85;21340;-81
2021/05/31 05:10:46;;;;;;;2.22;0.80;;;;;;;33.95;38.29;160114.63;1684307;84;21321;-81
2021/05/31 05:13:18;;;;;;;1.00;0.90;;;;;;;33.94;38.36;160111.94;1684708;84;21412;-82
2021/05/31 05:15:51;;;;;;;1.20;0.80;;;;;;;33.98;38.32;160122.66;1684665;84;21939;-81
2021/05/31 05:18:24;;;;;;;1.62;1.00;;;;;;;34.22;38.15;160188.16;1684591;83;21337;-81
2021/05/31 05:20:58;;;;;;;4.12;1.00;;;;;;;34.29;37.99;160206.89;1683365;85;21223;-81
2021/05/31 05:23:30;;;;;;;3.17;1.00;;;;;;;34.30;37.97;160210.88;1673144;85;21278;-82
2021/05/31 05:26:04;;;;;;;1.50;1.05;;;;;;;34.23;37.98;160190.83;1685033;84;21384;-81
2021/05/31 05:28:43;;;;;;;1.00;0.90;;;;;;;34.24;38.01;160193.50;1684808;83;21407;-86
2021/05/31 05:31:11;;;;;;;1.52;1.12;;;;;;;34.08;38.11;160149.38;1686070;84;21238;-82
2021/05/31 05:33:43;;;;;;;1.12;1.02;;;;;;;34.19;38.14;160181.48;1660637;85;21760;-82
2021/05/31 05:36:32;;;;;;;2.08;0.90;;;;;;;34.20;38.04;160184.16;1668258;85;21251;-81
2021/05/31 05:39:21;;;;;;;1.65;1.10;;;;;;;34.12;38.12;160160.13;1655074;85;21224;-82
2021/05/31 05:41:53;;;;;;;1.82;1.57;;;;;;;34.10;38.10;160154.78;1656787;86;21212;-83
2021/05/31 05:49:55;;;;;;;1.27;1.02;;;;;;;34.13;38.02;160164.11;1658913;86;21223;-82
2021/05/31 05:52:27;;;;;;;2.37;1.00;;;;;;;34.06;38.07;160145.37;1658957;86;21283;-83
2021/05/31 05:55:00;;;;;;;2.02;1.07;;;;;;;33.92;38.20;160106.59;1659016;85;21231;-82
2021/05/31 05:57:32;;;;;;;1.80;1.10;;;;;;;33.96;38.15;160118.66;1657059;86;21227;-77
2021/05/31 06:00:13;;;;;;;1.90;1.42;;;;;;;34.10;38.06;160156.08;1657539;86;21284;-82
2021/05/31 06:02:45;;;;;;;1.72;1.20;;;;;;;34.14;37.83;160168.09;1659087;85;21329;-87
2021/05/31 06:05:17;;;;;;;1.30;1.02;;;;;;;34.20;37.72;160184.16;1666478;85;21897;-82
2021/05/31 06:07:50;;;;;;;5.58;1.35;;;;;;;34.11;37.82;160158.75;1680104;84;21247;-83
2021/05/31 06:10:22;;;;;;;3.85;1.30;;;;;;;34.12;37.86;160160.13;1642571;86;21309;-82
2021/05/31 06:12:55;;;;;;;1.47;1.32;;;;;;;33.98;38.03;160123.97;1676893;85;21377;-81
2021/05/31 06:15:29;;;;;;;1.37;0.93;;;;;;;33.97;38.05;160121.28;1656543;86;21269;-82
2021/05/31 06:18:01;;;;;;;1.52;1.10;;;;;;;33.97;38.07;160121.28;1675404;85;21829;-82
2021/05/31 06:20:35;;;;;;;1.42;1.12;;;;;;;33.92;38.13;160106.59;1689554;85;21341;-83
2021/05/31 06:23:08;;;;;;;1.30;1.10;;;;;;;34.14;37.85;160165.48;1668755;84;21246;-83
2021/05/31 06:25:41;;;;;;;2.47;1.30;;;;;;;34.21;37.66;160185.47;1656572;86;21298;-84
2021/05/31 06:28:13;;;;;;;4.65;1.02;;;;;;;34.24;37.58;160194.87;1631180;87;21371;-83
2021/05/31 06:30:45;;;;;;;3.05;1.35;;;;;;;34.29;37.55;160206.89;1653967;84;21237;-85
2021/05/31 06:33:19;;;;;;;1.47;1.22;;;;;;;34.32;37.53;160214.88;1684714;83;21470;-81
2021/05/31 06:35:55;;;;;;;1.90;1.50;;;;;;;34.38;37.47;160230.94;1661963;83;21400;-82
2021/05/31 06:38:33;;;;;;;1.45;1.15;;;;;;;34.37;37.35;160229.63;1668076;83;21222;-81
2021/05/31 06:41:11;;;;;;;1.30;1.20;;;;;;;34.41;37.33;160240.28;1661482;84;22442;-81
2021/05/31 06:43:43;;;;;;;1.60;1.20;;;;;;;34.42;37.41;160241.64;1665936;84;21439;-81
2021/05/31 06:46:16;;;;;;;1.55;1.20;;;;;;;34.41;37.48;160240.28;1657906;85;21392;-81
2021/05/31 06:48:49;;;;;;;1.20;1.05;;;;;;;34.38;37.61;160230.94;1663813;83;21959;-82
2021/05/31 06:51:22;;;;;;;1.00;0.98;;;;;;;34.43;37.55;160245.63;1662617;84;21935;-81
2021/05/31 06:53:54;;;;;;;1.90;1.10;;;;;;;34.45;37.52;160250.98;1658367;85;21389;-81
2021/05/31 06:56:27;;;;;;;1.25;1.15;;;;;;;34.52;37.44;160269.67;1666602;84;21332;-81
2021/05/31 06:58:59;;;;;;;1.20;1.00;;;;;;;34.55;37.34;160276.34;1662064;84;21354;-81
2021/05/31 07:01:32;;;;;;;1.87;0.98;;;;;;;34.48;37.38;160259.02;1659978;84;21385;-81
2021/05/31 07:04:05;;;;;;;3.22;1.07;;;;;;;34.52;37.19;160269.67;1680006;83;21515;-82
2021/05/31 07:06:37;;;;;;;1.12;0.98;;;;;;;34.59;36.92;160288.47;1661897;83;21190;-83
2021/05/31 07:09:12;;;;;;;1.22;1.00;;;;;;;34.59;36.75;160287.11;1675334;83;21389;-83
2021/05/31 07:11:46;;;;;;;1.17;1.00;;;;;;;34.57;36.52;160283.13;1662944;85;21860;-83
2021/05/31 07:14:20;;;;;;;0.93;0.82;;;;;;;34.60;36.49;160289.78;1665378;84;21407;-84
2021/05/31 07:16:54;;;;;;;1.10;0.82;;;;;;;34.67;36.47;160308.47;1666351;84;21391;-83
2021/05/31 07:19:28;;;;;;;0.78;0.78;;;;;;;34.69;36.48;160315.20;1663041;84;21237;-81
2021/05/31 07:22:04;;;;;;;2.25;0.90;;;;;;;34.80;36.42;160343.23;1660687;84;21348;-83
2021/05/31 07:24:37;;;;;;;1.15;0.93;;;;;;;34.67;36.43;160309.84;1669153;84;21863;-80
2021/05/31 07:27:10;;;;;;;1.00;0.85;;;;;;;34.59;36.52;160288.47;1659308;84;21405;-83
2021/05/31 07:29:42;;;;;;;0.78;0.70;;;;;;;34.62;36.57;160295.14;1667584;84;21368;-81
2021/05/31 07:32:15;;;;;;;2.72;0.93;;;;;;;34.61;36.54;160293.78;1666578;84;21386;-83
2021/05/31 07:34:49;;;;;;;12.10;1.42;;;;;;;34.65;36.57;160304.48;1681850;84;21192;-79
2021/05/31 07:37:21;;;;;;;1.02;0.80;;;;;;;34.53;36.83;160271.05;1682732;84;21774;-82
2021/05/31 07:39:54;;;;;;;1.05;0.80;;;;;;;34.55;36.86;160277.72;1690259;84;21778;-84
2021/05/31 07:42:27;;;;;;;0.93;0.93;;;;;;;34.56;36.91;160280.39;1689375;83;21224;-83
2021/05/31 07:45:00;;;;;;;0.90;0.70;;;;;;;34.62;36.83;160295.14;1683801;84;21220;-83
2021/05/31 07:47:33;;;;;;;3.33;0.78;;;;;;;34.79;36.67;160340.56;1685781;84;21192;-82
2021/05/31 07:50:06;;;;;;;1.07;0.88;;;;;;;34.60;36.78;160289.78;1691505;84;21738;-82
2021/05/31 07:52:40;;;;;;;0.62;0.62;;;;;;;34.67;36.67;160309.84;1688433;84;21188;-83
2021/05/31 07:55:15;;;;;;;0.60;0.60;;;;;;;34.67;36.60;160308.47;1688187;83;21191;-84
2021/05/31 07:57:47;;;;;;;0.90;0.82;;;;;;;34.68;36.44;160312.52;1684016;84;21235;-83
2021/05/31 08:00:23;;;;;;;1.12;0.80;;;;;;;34.59;36.56;160287.11;1688991;84;21313;-84
2021/05/31 08:02:55;;;;;;;1.25;0.50;;;;;;;34.58;36.52;160284.44;1691196;84;21348;-84
2021/05/31 08:05:28;;;;;;;0.93;0.60;;;;;;;34.61;36.52;160293.78;1695358;84;21180;-86
2021/05/31 08:08:02;;;;;;;1.72;0.62;;;;;;;34.67;36.53;160309.84;1695506;84;21248;-83
2021/05/31 08:10:34;;;;;;;1.02;1.00;;;;;;;34.68;36.58;160312.52;1690297;84;21932;-83
2021/05/31 08:13:08;;;;;;;1.32;0.72;;;;;;;34.88;36.36;160365.97;1685705;84;21236;-84
2021/05/31 08:15:41;;;;;;;1.00;0.60;;;;;;;34.95;36.31;160384.72;1686886;84;21816;-84
2021/05/31 08:18:13;;;;;;;0.50;0.50;;;;;;;34.95;36.06;160383.36;1686097;84;21255;-81
2021/05/31 08:20:47;;;;;;;0.98;0.42;;;;;;;35.05;35.97;160411.50;1682290;84;21869;-83
2021/05/31 08:23:20;;;;;;;1.00;0.70;;;;;;;34.84;36.17;160355.27;1681000;84;21837;-82
2021/05/31 08:25:52;;;;;;;2.55;0.60;;;;;;;34.93;36.13;160379.38;1694059;83;21248;-83
2021/05/31 08:28:26;;;;;;;1.50;0.70;;;;;;;34.94;36.07;160380.69;1690755;84;21231;-82
2021/05/31 08:31:06;;;;;;;1.65;0.70;;;;;;;34.98;36.09;160391.39;1690644;84;21267;-82
2021/05/31 08:33:35;;;;;;;0.80;0.57;;;;;;;35.07;36.12;160415.50;1685866;84;21202;-79
2021/05/31 08:36:08;;;;;;;0.55;0.50;;;;;;;34.97;36.12;160390.03;1667765;85;21399;-85
2021/05/31 08:38:42;;;;;;;0.57;0.50;;;;;;;35.06;36.00;160414.19;1676218;83;21206;-84
2021/05/31 08:41:15;;;;;;;0.68;0.68;;;;;;;34.96;36.01;160387.34;1667556;85;21393;-84
2021/05/31 08:43:48;;;;;;;0.95;0.60;;;;;;;34.99;35.85;160394.06;1667811;83;21270;-84
2021/05/31 08:46:21;;;;;;;0.68;0.60;;;;;;;35.01;35.90;160399.42;1659754;83;21459;-84
2021/05/31 08:48:56;;;;;;;0.57;0.57;;;;;;;35.05;35.96;160411.50;1660969;85;21214;-85
2021/05/31 08:51:32;;;;;;;1.10;0.60;;;;;;;35.06;35.94;160414.19;1646029;84;21272;-85
2021/05/31 08:54:06;;;;;;;1.12;1.02;;;;;;;35.07;35.92;160415.50;1673879;84;21254;-84
2021/05/31 08:56:39;;;;;;;0.50;0.50;;;;;;;35.04;35.91;160407.41;1676055;83;21836;-85
2021/05/31 08:59:12;;;;;;;0.70;0.65;;;;;;;35.02;35.76;160402.06;1664105;85;21423;-85
2021/05/31 09:01:45;;;;;;;4.33;2.20;;;;;;;35.03;35.73;160404.73;1672716;83;21261;-86
2021/05/31 09:04:17;;;;;;;1.35;0.50;;;;;;;34.96;35.74;160387.34;1665777;83;21931;-84
2021/05/31 09:06:57;;;;;;;0.85;0.75;;;;;;;35.12;35.53;160430.20;1670886;84;21233;-85
2021/05/31 09:09:43;;;;;;;3.07;0.67;;;;;;;35.05;35.56;160411.50;1661586;85;21352;-84
2021/05/31 09:12:22;;;;;;;0.72;0.72;;;;;;;35.09;35.52;160420.86;1659912;83;21864;-85
2021/05/31 09:15:04;;;;;;;1.10;0.50;;;;;;;35.12;35.53;160430.20;1660240;85;21239;-87
2021/05/31 09:17:39;;;;;;;0.60;0.60;;;;;;;35.15;35.52;160438.25;1632000;85;21728;-84
2021/05/31 09:20:12;;;;;;;0.90;0.50;;;;;;;35.14;35.58;160436.88;1667602;83;21222;-85
2021/05/31 09:22:54;;;;;;;2.37;1.02;;;;;;;35.11;35.65;160427.53;1663459;85;21776;-85
2021/05/31 09:25:33;;;;;;;1.75;0.70;;;;;;;35.13;35.64;160434.19;1668148;83;21262;-86
2021/05/31 09:28:12;;;;;;;21.17;2.50;;;;;;;35.13;35.56;160432.88;1666832;84;21891;-79
2021/05/31 09:30:45;;;;;;;7.08;0.90;;;;;;;35.13;35.48;160431.56;1646225;85;21820;-82
2021/05/31 09:33:18;;;;;;;20.88;3.15;;;;;;;35.13;35.42;160431.56;1663289;83;21822;-83
2021/05/31 09:35:52;;;;;;;12.30;1.85;;;;;;;35.13;35.42;160431.56;1673175;84;21410;-83
2021/05/31 09:38:24;;;;;;;8.93;0.88;;;;;;;35.22;35.34;160456.94;1672500;84;21249;-83
2021/05/31 09:40:57;;;;;;;11.55;0.98;;;;;;;35.05;35.50;160411.50;1675348;84;21406;-82
2021/05/31 09:43:37;;;;;;;7.35;1.02;;;;;;;35.06;35.51;160414.19;1674685;84;21798;-83
2021/05/31 09:46:05;;;;;;;3.00;0.93;;;;;;;35.01;35.59;160400.75;1672231;84;21598;-84
2021/05/31 09:48:38;;;;;;;3.72;1.15;;;;;;;34.92;35.69;160375.33;1674443;84;21457;-85
2021/05/31 09:51:14;;;;;;;2.85;0.93;;;;;;;35.01;35.71;160400.75;1678655;83;21323;-84
2021/05/31 09:53:48;;;;;;;3.35;1.20;;;;;;;35.01;35.70;160400.75;1670993;84;21379;-84
2021/05/31 09:56:19;;;;;;;2.90;0.60;;;;;;;34.83;35.90;160352.64;1674737;84;21689;-83
2021/05/31 09:59:03;;;;;;;4.12;0.90;;;;;;;34.88;35.88;160364.66;1623354;86;21255;-84
2021/05/31 10:01:43;;;;;;;3.67;0.90;;;;;;;34.88;35.95;160365.97;1644828;86;21197;-83
2021/05/31 10:07:14;;;;;;;1.05;0.85;;;;;;;34.97;35.85;160388.72;1683473;84;21291;-83
2021/05/31 10:09:32;;;;;;;1.42;0.80;;;;;;;35.03;35.77;160406.09;1678285;84;21905;-83
2021/05/31 10:12:04;;;;;;;2.83;0.90;;;;;;;35.04;35.82;160408.78;1684158;84;21196;-82
2021/05/31 10:14:37;;;;;;;2.33;0.70;;;;;;;35.06;35.84;160412.81;1685627;84;21265;-83
2021/05/31 10:17:13;;;;;;;2.10;0.90;;;;;;;35.12;35.80;160428.89;1686019;84;21252;-83
2021/05/31 10:19:47;;;;;;;0.95;0.60;;;;;;;35.14;35.77;160435.56;1687693;84;21378;-82
2021/05/31 10:22:20;;;;;;;1.47;0.80;;;;;;;35.15;35.83;160439.56;1692147;84;21248;-83
2021/05/31 10:24:52;;;;;;;2.20;0.70;;;;;;;35.14;35.82;160435.56;1684626;84;21790;-86
2021/05/31 10:27:28;;;;;;;1.92;0.50;;;;;;;35.24;35.73;160462.30;1662587;84;21255;-83
2021/05/31 10:30:00;;;;;;;2.10;0.70;;;;;;;35.26;35.70;160467.66;1682835;84;21533;-85
2021/05/31 10:32:32;;;;;;;1.47;0.50;;;;;;;35.30;35.64;160479.69;1682307;84;21287;-84
2021/05/31 10:35:19;;;;;;;1.67;0.75;;;;;;;35.16;35.71;160440.92;1681636;84;21315;-84
2021/05/31 10:37:58;;;;;;;1.55;0.70;;;;;;;35.19;35.64;160448.91;1692900;84;21311;-83
2021/05/31 10:40:36;;;;;;;0.95;0.70;;;;;;;35.26;35.56;160468.97;1681525;84;21184;-84
2021/05/31 10:43:10;;;;;;;1.30;0.85;;;;;;;35.20;35.67;160451.58;1682334;84;21428;-85
2021/05/31 10:45:44;;;;;;;2.70;0.82;;;;;;;35.28;35.51;160473.00;1683757;84;21232;-84
2021/05/31 10:48:22;;;;;;;1.02;0.62;;;;;;;35.30;35.59;160478.38;1685840;84;21268;-86
2021/05/31 10:51:01;;;;;;;0.95;0.70;;;;;;;35.43;35.49;160514.45;1691629;84;21251;-84
2021/05/31 10:53:37;;;;;;;1.50;0.90;;;;;;;35.37;35.53;160497.06;1684194;84;21283;-83
2021/05/31 10:56:26;;;;;;;1.60;1.20;;;;;;;35.47;35.42;160523.81;1643260;84;21276;-83
2021/05/31 10:59:01;;;;;;;2.50;0.70;;;;;;;35.53;35.49;160541.25;1689180;84;21914;-84
2021/05/31 11:01:37;;;;;;;1.02;0.80;;;;;;;35.54;35.38;160543.94;1694425;84;21240;-85
2021/05/31 11:04:22;;;;;;;0.78;0.75;;;;;;;35.58;35.40;160553.28;1683271;84;21212;-86
2021/05/31 11:06:58;;;;;;;2.08;0.88;;;;;;;35.62;35.30;160564.00;1692813;84;21200;-87
2021/05/31 11:09:36;;;;;;;1.45;0.93;;;;;;;35.60;35.26;160558.64;1662324;84;21735;-85
2021/05/31 11:12:13;;;;;;;2.20;1.40;;;;;;;35.45;35.26;160519.81;1681578;84;21240;-86
2021/05/31 11:14:47;;;;;;;3.22;1.27;;;;;;;35.50;35.21;160531.84;1684505;83;21187;-85
2021/05/31 11:17:23;;;;;;;2.47;1.10;;;;;;;35.47;35.17;160525.17;1683802;84;21449;-86
2021/05/31 11:19:56;;;;;;;1.05;0.88;;;;;;;35.53;35.23;160539.94;1684008;84;21200;-85
2021/05/31 11:22:32;;;;;;;1.17;0.80;;;;;;;35.50;35.24;160531.84;1693840;83;21231;-88
2021/05/31 11:25:10;;;;;;;1.60;1.10;;;;;;;35.50;35.32;160531.84;1688202;84;21247;-86
2021/05/31 11:27:43;;;;;;;0.85;0.80;;;;;;;35.55;35.22;160546.61;1691850;84;21188;-87
2021/05/31 11:30:22;;;;;;;2.35;0.85;;;;;;;35.62;35.20;160564.00;1686914;84;21311;-86
2021/05/31 11:32:56;;;;;;;1.52;0.70;;;;;;;35.57;35.32;160551.97;1696016;84;21517;-87
2021/05/31 11:35:30;;;;;;;1.32;0.80;;;;;;;35.66;35.26;160576.03;1686287;84;21357;-86
2021/05/31 11:38:04;;;;;;;1.00;0.50;;;;;;;35.59;35.27;160555.97;1665597;84;21301;-85
2021/05/31 11:40:40;;;;;;;0.80;0.50;;;;;;;35.55;35.31;160546.61;1660078;83;21435;-84
2021/05/31 11:43:14;;;;;;;1.30;0.60;;;;;;;35.56;35.34;160547.92;1661463;85;21487;-83
2021/05/31 11:45:49;;;;;;;0.80;0.50;;;;;;;35.63;35.19;160568.00;1658857;85;21451;-84
2021/05/31 11:48:21;;;;;;;0.60;0.60;;;;;;;35.72;35.04;160592.06;1659045;83;21206;-85
2021/05/31 11:54:15;;;;;;;3.25;1.42;;;;;;;35.70;34.85;160585.39;1661823;83;21423;-84
2021/05/31 11:56:48;;;;;;;2.20;1.17;;;;;;;35.77;34.83;160604.09;1637894;83;21261;-84
2021/05/31 11:59:21;;;;;;;3.45;1.60;;;;;;;35.84;34.73;160622.84;1662169;85;21412;-84
2021/05/31 12:01:54;;;;;;;1.60;0.78;;;;;;;35.83;34.81;160620.17;1668680;83;21459;-84
2021/05/31 12:04:27;;;;;;;1.72;0.70;;;;;;;35.94;34.83;160650.91;1662657;84;21412;-83
2021/05/31 12:07:02;;;;;;;0.72;0.65;;;;;;;36.01;34.90;160668.36;1660743;85;21443;-84
2021/05/31 12:09:39;;;;;;;2.37;1.07;;;;;;;36.05;34.86;160680.44;1661299;84;22192;-84
2021/05/31 12:12:14;;;;;;;1.40;0.80;;;;;;;36.07;34.86;160684.44;1660849;85;21388;-85
2021/05/31 12:14:55;;;;;;;2.45;1.20;;;;;;;36.12;34.79;160699.16;1662705;84;21194;-85
2021/05/31 12:17:30;;;;;;;4.37;1.47;;;;;;;36.16;34.75;160709.87;1664393;83;21356;-84